Sarfaq Ittuk — OWDD — position and weather

sailwx.info

Track history (hours):
 
Tides and Currents Weather Stations Pressure Air Temp Water Temp Dewpoint Dewpoint Depression Visibility Wind Speed Wind Dir Waves Ship Positions

Sarfaq Ittuk

Last reported at 2020-Oct-27 12:31 UTC. Time now 2020-Oct-29 02:36 UTC.
Position N 64°06' W 051°39'.

Length 73 m; beam 11.1 m; draft 3.7 m.

Type: Passenger vessel. MMSI: 331000499.

Date/timePositionNaut miles runAvg speedWind from/ knotsBaromVisibWave heightAir tempDewpointWater temp
2020-Oct-27 12:31N 64°06' W 051°39'5 3.1
2020-Oct-27 11:00N 64°10' W 051°43'0 0.0
2020-Oct-27 10:30N 64°10' W 051°43'3 2.8
2020-Oct-27 09:30N 64°09' W 051°48'12 8.2
2020-Oct-27 08:00N 64°07' W 052°16'611.0
2020-Oct-27 07:30N 64°12' W 052°23'1711.3
2020-Oct-27 06:00N 64°28' W 052°32'2911.6
2020-Oct-27 03:30N 64°56' W 052°45'611.9
2020-Oct-27 03:00N 65°02' W 052°48'  
2020-Oct-24 03:00N 64°35' W 052°30'14 9.3
2020-Oct-24 01:30N 64°21' W 052°29'17 8.7
2020-Oct-23 23:30N 64°05' W 052°13'14 9.3
2020-Oct-23 22:00N 64°10' W 051°43'0 0.0
2020-Oct-23 16:31N 64°10' W 051°43'0 0.0
2020-Oct-23 10:30N 64°10' W 051°43'0 0.0
2020-Oct-23 08:30N 64°10' W 051°43'0 0.0
2020-Oct-23 04:00N 64°10' W 051°43'0 0.0
2020-Oct-23 00:30N 64°10' W 051°43'0 0.0
2020-Oct-22 22:30N 64°10' W 051°43'0 0.0
2020-Oct-22 18:30N 64°10' W 051°43'0 0.0
2020-Oct-22 18:00N 64°10' W 051°43'18 6.0
2020-Oct-22 15:00N 63°53' W 051°34'611.9
2020-Oct-22 14:30N 63°47' W 051°35'  
2020-Oct-17 21:00N 65°02' W 052°34'612.8
2020-Oct-17 20:30N 64°56' W 052°33'1313.1
2020-Oct-17 19:30N 64°43' W 052°30'38 8.5
2020-Oct-17 15:00N 64°10' W 051°43'0 0.0
2020-Oct-17 14:30N 64°10' W 051°43'0 0.0
2020-Oct-17 13:00N 64°10' W 051°43'  
Track history (hours):
 
Tides and Currents Weather Stations Pressure Air Temp Water Temp Dewpoint Dewpoint Depression Visibility Wind Speed Wind Dir Waves Ship Positions

Sarfaq Ittuk

Last reported at 2020-Oct-27 12:31 UTC. Time now 2020-Oct-29 02:36 UTC.
Position N 64°06' W 051°39'.

Length 73 m; beam 11.1 m; draft 3.7 m.

Type: Passenger vessel. MMSI: 331000499.

Date/timePositionNaut miles runAvg speedWind from/ knotsBaromVisibWave heightAir tempDewpointWater temp
2020-Oct-27 12:31N 64°06' W 051°39'5 3.1
2020-Oct-27 11:00N 64°10' W 051°43'0 0.0
2020-Oct-27 10:30N 64°10' W 051°43'3 2.8
2020-Oct-27 09:30N 64°09' W 051°48'12 8.2
2020-Oct-27 08:00N 64°07' W 052°16'611.0
2020-Oct-27 07:30N 64°12' W 052°23'1711.3
2020-Oct-27 06:00N 64°28' W 052°32'2911.6
2020-Oct-27 03:30N 64°56' W 052°45'611.9
2020-Oct-27 03:00N 65°02' W 052°48'  
2020-Oct-24 03:00N 64°35' W 052°30'14 9.3
2020-Oct-24 01:30N 64°21' W 052°29'17 8.7
2020-Oct-23 23:30N 64°05' W 052°13'14 9.3
2020-Oct-23 22:00N 64°10' W 051°43'0 0.0
2020-Oct-23 16:31N 64°10' W 051°43'0 0.0
2020-Oct-23 10:30N 64°10' W 051°43'0 0.0
2020-Oct-23 08:30N 64°10' W 051°43'0 0.0
2020-Oct-23 04:00N 64°10' W 051°43'0 0.0
2020-Oct-23 00:30N 64°10' W 051°43'0 0.0
2020-Oct-22 22:30N 64°10' W 051°43'0 0.0
2020-Oct-22 18:30N 64°10' W 051°43'0 0.0
2020-Oct-22 18:00N 64°10' W 051°43'18 6.0
2020-Oct-22 15:00N 63°53' W 051°34'611.9
2020-Oct-22 14:30N 63°47' W 051°35'  
2020-Oct-17 21:00N 65°02' W 052°34'612.8
2020-Oct-17 20:30N 64°56' W 052°33'1313.1
2020-Oct-17 19:30N 64°43' W 052°30'38 8.5
2020-Oct-17 15:00N 64°10' W 051°43'0 0.0
2020-Oct-17 14:30N 64°10' W 051°43'0 0.0
2020-Oct-17 13:00N 64°10' W 051°43'  

Dump ship's entire track history